Time;durP1;ratioP1;P1;durP2;ratioP2;P2;SDS_P1;SDS_P2;PMS_P1;PMS_P2;Temp;Humidity;BMP_temperature;BMP_pressure;BME280_temperature;BME280_humidity;BME280_pressure;Samples;Min_cycle;Max_cycle;Signal;HPM_P1;HPM_P2
2023/04/05 00:01:25;;;;;;;9.63;5.18;;;;;;;;;;4971839;28;20124;-71
2023/04/05 00:03:54;;;;;;;9.95;4.95;;;;;;;;;;4978898;28;20049;-70
2023/04/05 00:06:25;;;;;;;8.10;4.88;;;;;;;;;;4960552;28;20050;-70
2023/04/05 00:08:54;;;;;;;8.75;4.60;;;;;;;;;;4979766;28;20117;-70
2023/04/05 00:11:20;;;;;;;12.27;4.68;;;;;;;;;;4971062;28;20416;-70
2023/04/05 00:13:46;;;;;;;19.77;9.20;;;;;;;;;;4958248;28;20505;-70
2023/04/05 00:16:12;;;;;;;42.72;16.15;;;1.50;99.90;;;;;;4967875;28;20066;-69
2023/04/05 00:18:38;;;;;;;21.88;10.70;;;;;;;;;;4961680;28;20488;-70
2023/04/05 00:21:04;;;;;;;24.52;9.27;;;;;;;;;;4979313;28;20408;-70
2023/04/05 00:23:37;;;;;;;19.02;8.65;;;;;;;;;;4980619;28;20042;-69
2023/04/05 00:26:03;;;;;;;15.40;6.97;;;;;;;;;;4956561;28;20517;-70
2023/04/05 00:28:29;;;;;;;23.40;10.13;;;;;;;;;;4973825;28;20139;-69
2023/04/05 00:30:55;;;;;;;16.02;7.75;;;;;;;;;;4961025;28;20074;-70
2023/04/05 00:33:21;;;;;;;13.57;6.22;;;;;;;;;;4963711;28;20085;-69
2023/04/05 00:35:47;;;;;;;11.50;6.03;;;;;;;;;;4979601;28;20038;-70
2023/04/05 00:38:13;;;;;;;11.00;5.63;;;;;;;;;;4957415;28;20065;-70
2023/04/05 00:40:39;;;;;;;10.15;5.35;;;;;;;;;;4973048;28;20082;-69
2023/04/05 00:43:04;;;;;;;8.82;5.00;;;;;;;;;;4970765;28;20493;-70
2023/04/05 00:45:31;;;;;;;12.18;5.95;;;;;;;;;;4959789;28;20061;-70
2023/04/05 00:47:57;;;;;;;12.25;4.88;;;;;;;;;;4954834;28;20046;-70
2023/04/05 00:50:23;;;;;;;8.48;4.70;;;;;;;;;;4951471;28;20051;-70
2023/04/05 00:52:50;;;;;;;10.40;5.55;;;;;;;;;;4962563;28;20048;-69
2023/04/05 00:55:16;;;;;;;11.93;6.65;;;;;;;;;;4968508;28;20086;-69
2023/04/05 00:57:44;;;;;;;12.25;6.78;;;;;;;;;;4965431;28;20854;-69
2023/04/05 01:00:10;;;;;;;12.98;6.55;;;;;;;;;;4970618;28;20050;-70
2023/04/05 01:02:44;;;;;;;13.50;7.05;;;;;;;;;;4975837;28;20583;-69
2023/04/05 01:05:19;;;;;;;17.40;9.05;;;;;;;;;;4974929;28;20054;-70
2023/04/05 01:08:14;;;;;;;25.58;10.27;;;;;;;;;;4954584;28;20046;-70
2023/04/05 01:10:47;;;;;;;14.75;7.10;;;;;;;;;;4908798;28;20104;-69
2023/04/05 01:13:16;;;;;;;16.52;7.20;;;;;;;;;;4968257;28;20058;-69
2023/04/05 01:15:41;;;;;;;12.75;6.93;;;;;;;;;;4963364;28;20058;-69
2023/04/05 01:18:10;;;;;;;14.30;6.68;;;;;;;;;;4957709;28;20046;-70
2023/04/05 01:20:39;;;;;;;16.67;7.43;;;;;;;;;;4956813;28;20061;-70
2023/04/05 01:23:13;;;;;;;15.60;7.10;;;;;;;;;;4954147;28;20074;-69
2023/04/05 01:25:42;;;;;;;15.43;6.38;;;;;;;;;;4960089;28;20042;-69
2023/04/05 01:28:23;;;;;;;12.00;5.40;;;;;;;;;;4978014;28;20112;-69
2023/04/05 01:31:20;;;;;;;15.57;5.20;;;;;;;;;;4959363;28;20058;-70
2023/04/05 01:33:46;;;;;;;10.73;4.97;;;;;;;;;;4883513;28;20092;-69
2023/04/05 01:36:17;;;;;;;9.20;4.85;;;;;;;;;;4952489;28;20133;-69
2023/04/05 01:38:45;;;;;;;10.82;5.55;;;;;;;;;;4978456;28;20991;-70
2023/04/05 01:41:11;;;;;;;15.35;6.72;;;;;;;;;;4949262;28;20509;-69
2023/04/05 01:43:37;;;;;;;14.05;7.45;;;;;;;;;;4963900;28;20125;-69
2023/04/05 01:46:03;;;;;;;11.32;6.07;;;;;;;;;;4979413;28;20133;-69
2023/04/05 01:48:29;;;;;;;17.10;7.35;;;;;;;;;;4983851;28;20043;-69
2023/04/05 01:50:55;;;;;;;12.55;6.72;;;;;;;;;;4983489;28;20102;-70
2023/04/05 01:53:21;;;;;;;20.05;7.90;;;;;;;;;;4965167;28;20193;-69
2023/04/05 01:55:47;;;;;;;14.52;7.47;;;;;;;;;;4980962;28;20787;-69
2023/04/05 01:58:13;;;;;;;11.13;6.13;;;;;;;;;;4964392;28;20054;-70
2023/04/05 02:00:39;;;;;;;7.45;4.82;;;;;;;;;;4981065;28;20046;-69
2023/04/05 02:03:05;;;;;;;11.80;6.75;;;;;;;;;;4958846;28;20042;-69
2023/04/05 02:05:31;;;;;;;8.65;5.28;;;;;;;;;;4957843;28;20053;-69
2023/04/05 02:07:57;;;;;;;9.93;5.38;;;;;;;;;;4953722;28;20096;-69
2023/04/05 02:10:24;;;;;;;11.77;5.30;;;;;;;;;;4956781;28;20057;-69
2023/04/05 02:12:50;;;;;;;9.57;5.60;;;;;;;;;;4952471;28;20050;-69
2023/04/05 02:15:16;;;;;;;10.10;5.30;;;;;;;;;;4971475;28;20054;-70
2023/04/05 02:17:44;;;;;;;14.25;6.05;;;;;;;;;;4965855;28;20082;-69
2023/04/05 02:20:13;;;;;;;11.52;5.65;;;-0.10;99.90;;;;;;4962430;28;20139;-69
2023/04/05 02:22:39;;;;;;;10.52;5.75;;;;;;;;;;4962572;28;20054;-69
2023/04/05 02:25:09;;;;;;;11.02;6.30;;;;;;;;;;4960017;28;20093;-70
2023/04/05 02:27:35;;;;;;;10.57;5.90;;;;;;;;;;4957619;28;20753;-69
2023/04/05 02:30:01;;;;;;;10.10;5.68;;;;;;;;;;4950942;28;20130;-69
2023/04/05 02:32:27;;;;;;;11.27;5.65;;;;;;;;;;4962905;28;20046;-70
2023/04/05 02:34:54;;;;;;;11.98;5.45;;;;;;;;;;4964673;28;20042;-70
2023/04/05 02:37:20;;;;;;;13.23;5.95;;;;;;;;;;4977126;28;20405;-69
2023/04/05 02:39:46;;;;;;;10.35;5.55;;;;;;;;;;4963457;28;20046;-69
2023/04/05 02:42:12;;;;;;;12.02;5.47;;;;;;;;;;4973280;28;20065;-69
2023/04/05 02:44:38;;;;;;;11.35;5.63;;;;;;;;;;4956784;28;20484;-69
2023/04/05 02:47:04;;;;;;;11.32;6.25;;;;;;;;;;4958359;28;20038;-69
2023/04/05 02:49:30;;;;;;;13.32;5.78;;;;;;;;;;4961596;28;20138;-70
2023/04/05 02:51:56;;;;;;;9.98;6.25;;;;;;;;;;4970744;28;20039;-69
2023/04/05 02:54:22;;;;;;;11.18;5.25;;;;;;;;;;4969665;28;20505;-70
2023/04/05 02:56:49;;;;;;;7.93;5.18;;;;;;;;;;4966888;28;20412;-69
2023/04/05 02:59:16;;;;;;;8.45;4.82;;;;;;;;;;4960497;28;20109;-70
2023/04/05 03:01:43;;;;;;;12.15;5.70;;;;;;;;;;4979409;28;20042;-69
2023/04/05 03:04:13;;;;;;;8.90;5.32;;;;;;;;;;4958620;28;20041;-69
2023/04/05 03:06:43;;;;;;;8.60;4.63;;;;;;;;;;4961063;28;20056;-70
2023/04/05 03:09:09;;;;;;;8.30;4.75;;;;;;;;;;4957878;28;20046;-69
2023/04/05 03:11:35;;;;;;;8.10;5.18;;;;;;;;;;4962663;28;20539;-69
2023/04/05 03:14:01;;;;;;;10.05;4.60;;;;;;;;;;4978948;28;20058;-69
2023/04/05 03:16:27;;;;;;;8.57;5.28;;;;;;;;;;4952449;28;20454;-69
2023/04/05 03:18:53;;;;;;;8.13;4.45;;;;;;;;;;4952887;28;20120;-69
2023/04/05 03:21:20;;;;;;;12.15;5.00;;;;;;;;;;4971982;28;20054;-70
2023/04/05 03:23:47;;;;;;;8.63;4.95;;;;;;;;;;4978037;28;20045;-70
2023/04/05 03:26:13;;;;;;;9.57;4.90;;;;;;;;;;4977520;28;20508;-69
2023/04/05 03:28:44;;;;;;;8.82;4.22;;;;;;;;;;4969046;28;20050;-69
2023/04/05 03:31:10;;;;;;;7.82;4.95;;;;;;;;;;4955963;28;20062;-70
2023/04/05 03:33:36;;;;;;;8.40;4.93;;;;;;;;;;4976343;28;20453;-69
2023/04/05 03:36:04;;;;;;;8.50;4.90;;;;;;;;;;4963832;28;20337;-69
2023/04/05 03:38:31;;;;;;;8.55;4.90;;;;;;;;;;4975941;28;20046;-70
2023/04/05 03:40:57;;;;;;;9.73;5.60;;;;;;;;;;4962832;28;20054;-69
2023/04/05 03:43:23;;;;;;;9.32;5.20;;;;;;;;;;4960101;28;20059;-69
2023/04/05 03:45:49;;;;;;;11.38;5.13;;;;;;;;;;4960696;28;20171;-69
2023/04/05 03:48:19;;;;;;;9.70;5.15;;;;;;;;;;4963209;28;20078;-70
2023/04/05 03:50:46;;;;;;;9.85;5.10;;;;;;;;;;4977328;28;20050;-70
2023/04/05 03:53:12;;;;;;;11.70;4.95;;;;;;;;;;4957235;28;20058;-69
2023/04/05 03:55:39;;;;;;;11.57;4.65;;;;;;;;;;4972567;28;20492;-69
2023/04/05 03:58:05;;;;;;;8.07;3.90;;;;;;;;;;4956774;28;20076;-69
2023/04/05 04:00:31;;;;;;;10.55;4.60;;;;;;;;;;4963145;28;20485;-69
2023/04/05 04:02:57;;;;;;;7.35;4.18;;;;;;;;;;4963761;28;20038;-69
2023/04/05 04:05:22;;;;;;;11.25;4.88;;;;;;;;;;4958965;28;20055;-69
2023/04/05 04:07:48;;;;;;;9.15;4.57;;;;;;;;;;4974307;28;20097;-69
2023/04/05 04:10:16;;;;;;;8.63;4.65;;;-1.00;99.90;;;;;;4949020;28;20081;-69
2023/04/05 04:12:43;;;;;;;7.97;4.40;;;;;;;;;;4959983;28;20047;-69
2023/04/05 04:15:09;;;;;;;12.50;5.13;;;;;;;;;;4968427;28;20110;-69
2023/04/05 04:17:36;;;;;;;9.80;4.90;;;;;;;;;;4961925;28;20879;-69
2023/04/05 04:20:06;;;;;;;11.73;4.72;;;;;;;;;;4963428;28;20058;-69
2023/04/05 04:22:32;;;;;;;9.77;4.57;;;;;;;;;;4975467;28;20054;-69
2023/04/05 04:25:03;;;;;;;13.73;6.65;;;;;;;;;;4963065;28;20043;-69
2023/04/05 04:27:29;;;;;;;8.50;5.05;;;;;;;;;;4962083;28;20050;-69
2023/04/05 04:30:00;;;;;;;7.75;5.07;;;;;;;;;;4965131;28;20038;-69
2023/04/05 04:32:46;;;;;;;8.93;5.13;;;;;;;;;;4975550;28;20065;-69
2023/04/05 04:35:14;;;;;;;;;;;-0.80;99.90;;;;;;4957280;28;20417;-69
2023/04/05 04:37:45;;;;;;;9.45;4.53;;;;;;;;;;4972337;28;20466;-69
2023/04/05 04:40:14;;;;;;;9.88;5.47;;;;;;;;;;4969159;28;20097;-69
2023/04/05 04:42:43;;;;;;;11.23;6.10;;;;;;;;;;4964356;28;20038;-69
2023/04/05 04:45:10;;;;;;;12.57;5.53;;;;;;;;;;4967856;28;20046;-70
2023/04/05 04:47:36;;;;;;;8.88;5.45;;;;;;;;;;4960892;28;20051;-69
2023/04/05 04:50:03;;;;;;;7.60;4.18;;;;;;;;;;4970037;28;20065;-70
2023/04/05 04:52:29;;;;;;;9.43;5.03;;;;;;;;;;4966895;28;20043;-69
2023/04/05 04:54:55;;;;;;;9.00;4.72;;;;;;;;;;4963935;28;20496;-69
2023/04/05 04:57:24;;;;;;;8.77;5.40;;;;;;;;;;4960553;28;20053;-69
2023/04/05 04:59:50;;;;;;;8.90;4.68;;;;;;;;;;4985565;28;20038;-69
2023/04/05 05:02:16;;;;;;;9.40;5.70;;;;;;;;;;4981555;28;20038;-70
2023/04/05 05:04:43;;;;;;;13.48;5.65;;;;;;;;;;4960913;28;20476;-70
2023/04/05 05:07:09;;;;;;;12.68;5.93;;;;;;;;;;4960959;28;20051;-69
2023/04/05 05:09:35;;;;;;;8.45;4.93;;;;;;;;;;4959158;28;20105;-69
2023/04/05 05:12:01;;;;;;;10.00;5.32;;;;;;;;;;4965675;28;20057;-69
2023/04/05 05:14:27;;;;;;;11.25;5.15;;;;;;;;;;4978784;28;20054;-69
2023/04/05 05:16:53;;;;;;;8.48;5.38;;;;;;;;;;4951706;28;20051;-69
2023/04/05 05:19:19;;;;;;;9.75;5.43;;;-1.20;99.90;;;;;;4983734;28;20397;-69
2023/04/05 05:21:48;;;;;;;9.60;5.63;;;;;;;;;;4961392;28;20589;-69
2023/04/05 05:24:14;;;;;;;10.43;5.38;;;;;;;;;;4963234;28;20133;-70
2023/04/05 05:26:39;;;;;;;9.50;5.57;;;-0.80;99.90;;;;;;4978719;28;20572;-69
2023/04/05 05:29:05;;;;;;;9.85;5.13;;;;;;;;;;4971007;28;20046;-69
2023/04/05 05:31:32;;;;;;;9.10;5.22;;;;;;;;;;4969711;28;20097;-70
2023/04/05 05:33:58;;;;;;;11.13;5.60;;;;;;;;;;4956441;28;20074;-70
2023/04/05 05:36:26;;;;;;;11.60;5.97;;;;;;;;;;4964810;28;20050;-69
2023/04/05 05:38:55;;;;;;;10.63;6.25;;;;;;;;;;4976770;28;20505;-69
2023/04/05 05:41:21;;;;;;;9.73;5.50;;;;;;;;;;4968569;28;20061;-69
2023/04/05 05:43:47;;;;;;;12.45;6.70;;;;;;;;;;4960263;28;20054;-69
2023/04/05 05:46:13;;;;;;;14.48;7.88;;;;;;;;;;4965865;28;20093;-69
2023/04/05 05:48:40;;;;;;;12.10;6.32;;;;;;;;;;4962022;28;20042;-69
2023/04/05 05:51:09;;;;;;;12.07;6.07;;;;;;;;;;4964019;28;20060;-69
2023/04/05 05:53:39;;;;;;;13.32;6.38;;;;;;;;;;4952729;28;20088;-69
2023/04/05 05:56:05;;;;;;;12.57;6.05;;;;;;;;;;4973442;28;20126;-69
2023/04/05 05:58:31;;;;;;;11.15;6.75;;;;;;;;;;4956235;28;20133;-69
2023/04/05 06:00:58;;;;;;;14.43;6.93;;;0.10;99.90;;;;;;4949890;28;20473;-69
2023/04/05 06:03:25;;;;;;;18.15;6.75;;;;;;;;;;4965852;28;20042;-69
2023/04/05 06:05:55;;;;;;;11.35;6.90;;;;;;;;;;4961611;28;20133;-69
2023/04/05 06:08:21;;;;;;;14.43;7.40;;;;;;;;;;4979334;28;20034;-69
2023/04/05 06:10:47;;;;;;;11.90;6.80;;;;;;;;;;4948620;28;20050;-69
2023/04/05 06:13:13;;;;;;;12.93;6.75;;;;;;;;;;4955189;28;20057;-69
2023/04/05 06:15:40;;;;;;;13.60;6.80;;;;;;;;;;4967571;28;20568;-69
2023/04/05 06:18:06;;;;;;;14.15;6.75;;;;;;;;;;4958132;28;20054;-70
2023/04/05 06:24:06;;;;;;;12.73;7.60;;;;;;;;;;4988091;28;20036;-70
2023/04/05 06:26:32;;;;;;;12.52;7.68;;;;;;;;;;4955023;28;20047;-70
2023/04/05 06:28:58;;;;;;;14.60;8.30;;;;;;;;;;4949069;28;20050;-70
2023/04/05 06:31:31;;;;;;;14.10;7.70;;;8.20;99.90;;;;;;4967847;28;20528;-70
2023/04/05 06:33:57;;;;;;;12.05;7.43;;;;;;;;;;4962836;28;20346;-71
2023/04/05 06:36:23;;;;;;;12.85;7.72;;;;;;;;;;4962336;28;20078;-71
2023/04/05 06:38:50;;;;;;;10.85;7.07;;;;;;;;;;4961308;28;20561;-71
2023/04/05 06:41:16;;;;;;;15.07;8.85;;;10.50;99.90;;;;;;4976075;28;20428;-70
2023/04/05 06:43:41;;;;;;;13.52;8.20;;;10.90;99.90;;;;;;4962943;28;20034;-69
2023/04/05 06:46:10;;;;;;;12.85;7.43;;;10.90;99.90;;;;;;4954503;28;20149;-69
2023/04/05 06:48:36;;;;;;;10.40;6.90;;;;;;;;;;4968392;28;20389;-70
2023/04/05 06:51:02;;;;;;;12.65;8.05;;;11.00;99.90;;;;;;4951322;28;20057;-70
2023/04/05 06:53:29;;;;;;;14.48;7.90;;;9.90;99.90;;;;;;4959105;28;20093;-71
2023/04/05 06:55:58;;;;;;;11.57;8.45;;;9.30;99.90;;;;;;4970106;28;20051;-70
2023/04/05 06:58:25;;;;;;;10.63;8.02;;;8.70;99.90;;;;;;4970707;28;20030;-70
2023/04/05 07:00:51;;;;;;;11.88;8.35;;;;;;;;;;4965349;28;20085;-70
2023/04/05 07:03:17;;;;;;;12.50;8.05;;;7.20;99.90;;;;;;4960803;28;20042;-69
2023/04/05 07:05:53;;;;;;;17.25;9.07;;;6.90;99.90;;;;;;4978888;28;20046;-70
2023/04/05 07:08:20;;;;;;;15.95;8.45;;;6.60;99.90;;;;;;4981256;28;20154;-70
2023/04/05 07:10:46;;;;;;;12.40;8.38;;;;;;;;;;4970645;28;20408;-70
2023/04/05 07:13:12;;;;;;;16.30;8.75;;;7.90;99.90;;;;;;4960164;28;20504;-70
2023/04/05 07:15:37;;;;;;;14.50;9.13;;;8.50;99.90;;;;;;4975661;28;20179;-69
2023/04/05 07:18:03;;;;;;;11.63;8.13;;;;;;;;;;4958223;28;20050;-70
2023/04/05 07:20:29;;;;;;;11.48;7.85;;;;;;;;;;4984631;28;20416;-69
2023/04/05 07:22:56;;;;;;;10.73;7.65;;;;;;;;;;4957748;28;20046;-70
2023/04/05 07:25:21;;;;;;;11.95;8.05;;;10.60;99.90;;;;;;4975650;28;20042;-70
2023/04/05 07:27:47;;;;;;;10.10;7.97;;;;;;;;;;4968920;28;20190;-70
2023/04/05 07:30:13;;;;;;;16.23;7.65;;;;;;;;;;4950831;28;20046;-70
2023/04/05 07:32:40;;;;;;;11.88;8.07;;;;;;;;;;4956715;28;20481;-69
2023/04/05 07:35:06;;;;;;;10.70;8.05;;;12.20;99.90;;;;;;4972090;28;20555;-69
2023/04/05 07:37:31;;;;;;;13.00;8.18;;;12.20;99.90;;;;;;4962924;28;20042;-69
2023/04/05 07:39:57;;;;;;;10.32;7.53;;;;;;;;;;4972431;28;20089;-70
2023/04/05 07:42:24;;;;;;;13.32;8.15;;;;;;;;;;4956912;28;20051;-73
2023/04/05 07:44:50;;;;;;;12.68;8.40;;;13.40;99.90;;;;;;4978815;28;20053;-73
2023/04/05 07:47:16;;;;;;;11.90;8.43;;;;;;;;;;4957107;28;20042;-70
2023/04/05 07:49:42;;;;;;;13.82;9.20;;;;;;;;;;4958791;28;20731;-71
2023/04/05 07:52:07;;;;;;;12.02;7.90;;;14.50;99.90;;;;;;4982367;28;20046;-70
2023/04/05 07:54:33;;;;;;;10.77;7.47;;;14.90;99.90;;;;;;4964900;28;20049;-71
2023/04/05 07:56:59;;;;;;;12.20;8.30;;;;;;;;;;4965432;28;20057;-73
2023/04/05 07:59:25;;;;;;;13.70;8.05;;;14.60;99.90;;;;;;4953484;28;20054;-70
2023/04/05 08:01:51;;;;;;;13.52;8.35;;;13.70;99.90;;;;;;4964388;28;20416;-69
2023/04/05 08:04:18;;;;;;;12.45;7.95;;;12.80;99.90;;;;;;4979065;28;20047;-73
2023/04/05 08:06:44;;;;;;;11.00;7.38;;;;;;;;;;4956873;28;20047;-71
2023/04/05 08:09:10;;;;;;;13.77;7.18;;;;;;;;;;4960590;28;20050;-71
2023/04/05 08:11:36;;;;;;;9.23;7.00;;;10.80;99.90;;;;;;4955345;28;20047;-71
2023/04/05 08:14:02;;;;;;;12.25;7.88;;;;;;;;;;4956165;28;20132;-71
2023/04/05 08:16:28;;;;;;;15.27;8.10;;;9.80;99.90;;;;;;4961910;28;20145;-71
2023/04/05 08:18:54;;;;;;;14.00;8.57;;;;;;;;;;4965215;28;20149;-72
2023/04/05 08:21:20;;;;;;;12.20;7.93;;;;;;;;;;4963415;28;20579;-71
2023/04/05 08:23:46;;;;;;;11.88;7.43;;;;;;;;;;4969035;28;20408;-72
2023/04/05 08:26:12;;;;;;;9.98;7.10;;;;;;;;;;4959694;28;20065;-71
2023/04/05 08:28:38;;;;;;;13.52;6.78;;;;;;;;;;4974419;28;20038;-71
2023/04/05 08:31:03;;;;;;;11.05;6.85;;;9.30;99.90;;;;;;4954733;28;20499;-71
2023/04/05 08:33:29;;;;;;;13.15;6.75;;;;;;;;;;4966799;28;20053;-71
2023/04/05 08:35:56;;;;;;;10.68;6.97;;;9.20;99.90;;;;;;4966665;28;20057;-72
2023/04/05 08:38:22;;;;;;;13.02;6.43;;;9.50;99.90;;;;;;4978749;28;20038;-71
2023/04/05 08:40:48;;;;;;;9.52;6.25;;;;;;;;;;4951580;28;20055;-72
2023/04/05 08:43:22;;;;;;;9.95;6.50;;;9.70;99.90;;;;;;4965680;28;20053;-71
2023/04/05 08:45:52;;;;;;;13.15;6.97;;;9.80;99.90;;;;;;4951840;28;20043;-71
2023/04/05 08:48:18;;;;;;;9.95;6.07;;;9.90;99.90;;;;;;4965297;28;20501;-71
2023/04/05 08:50:54;;;;;;;9.68;6.32;;;9.90;99.90;;;;;;4984842;28;20034;-71
2023/04/05 08:53:20;;;;;;;12.07;5.70;;;10.10;99.90;;;;;;4982367;28;20053;-71
2023/04/05 08:55:51;;;;;;;10.95;6.50;;;10.30;99.90;;;;;;4980085;28;20057;-71
2023/04/05 08:58:17;;;;;;;9.52;6.43;;;10.60;99.90;;;;;;4959005;28;20485;-71
2023/04/05 09:00:44;;;;;;;7.57;6.03;;;;;;;;;;4960981;28;20053;-71
2023/04/05 09:03:16;;;;;;;10.07;6.40;;;10.60;99.90;;;;;;4961438;28;20792;-71
2023/04/05 09:05:45;;;;;;;11.25;7.00;;;;;;;;;;4975272;28;20443;-71
2023/04/05 09:08:12;;;;;;;10.18;6.90;;;10.30;99.90;;;;;;4954493;28;20042;-70
2023/04/05 09:10:38;;;;;;;10.45;6.45;;;10.40;99.90;;;;;;4979566;28;20076;-69
2023/04/05 09:13:04;;;;;;;11.27;7.43;;;;;;;;;;4974676;28;20054;-69
2023/04/05 09:15:30;;;;;;;10.13;6.65;;;;;;;;;;4944485;28;20189;-69
2023/04/05 09:17:56;;;;;;;8.45;6.75;;;;;;;;;;4954383;28;20086;-74
2023/04/05 09:20:34;;;;;;;11.05;6.72;;;11.20;99.90;;;;;;4935740;28;20082;-71
2023/04/05 09:23:00;;;;;;;9.15;5.97;;;;;;;;;;4945442;28;20042;-69
2023/04/05 09:25:37;;;;;;;9.55;6.38;;;;;;;;;;4947426;28;20042;-70
2023/04/05 09:28:06;;;;;;;8.63;5.95;;;11.30;99.90;;;;;;4962509;28;20101;-71
2023/04/05 09:30:33;;;;;;;11.10;6.05;;;11.30;99.90;;;;;;4961117;28;20050;-71
2023/04/05 09:32:59;;;;;;;9.20;6.13;;;;;;;;;;4940154;28;20109;-71
2023/04/05 09:35:27;;;;;;;12.23;5.93;;;11.40;99.90;;;;;;4940479;28;20105;-73
2023/04/05 09:37:54;;;;;;;8.18;5.68;;;11.30;99.90;;;;;;4946146;28;20493;-71
2023/04/05 09:40:21;;;;;;;7.68;6.28;;;;;;;;;;4944012;28;20117;-71
2023/04/05 09:42:47;;;;;;;10.18;6.00;;;;;;;;;;4946755;28;20043;-72
2023/04/05 09:45:14;;;;;;;6.95;5.28;;;11.20;99.90;;;;;;4942296;28;20122;-71
2023/04/05 09:47:40;;;;;;;6.75;5.18;;;11.20;99.90;;;;;;4943175;28;20039;-69
2023/04/05 09:50:15;;;;;;;7.40;5.07;;;11.60;99.90;;;;;;4931877;28;20050;-73
2023/04/05 09:52:42;;;;;;;10.13;6.25;;;11.70;99.90;;;;;;4942233;28;20046;-70
2023/04/05 09:55:08;;;;;;;7.88;5.47;;;;;;;;;;4943447;28;20039;-75
2023/04/05 09:57:36;;;;;;;11.15;5.88;;;11.80;99.90;;;;;;4960978;28;20039;-72
2023/04/05 10:00:04;;;;;;;9.63;5.50;;;;;;;;;;4934808;28;20051;-71
2023/04/05 10:02:39;;;;;;;8.70;5.70;;;12.00;99.90;;;;;;4960491;28;20432;-70
2023/04/05 10:05:06;;;;;;;10.13;5.50;;;12.00;99.90;;;;;;4962112;28;20060;-70
2023/04/05 10:07:32;;;;;;;7.95;5.30;;;;;;;;;;4959095;28;20569;-71
2023/04/05 10:09:58;;;;;;;8.75;5.50;;;;;;;;;;4950499;28;20093;-74
2023/04/05 10:12:26;;;;;;;8.27;5.13;;;11.80;99.90;;;;;;4938560;28;20165;-73
2023/04/05 10:14:52;;;;;;;13.95;5.82;;;11.60;99.90;;;;;;4962476;28;20429;-70
2023/04/05 10:17:28;;;;;;;12.18;6.05;;;11.80;99.90;;;;;;4972755;28;20103;-70
2023/04/05 10:20:12;;;;;;;12.10;5.57;;;11.60;99.90;;;;;;4967450;28;20096;-70
2023/04/05 10:22:38;;;;;;;9.27;5.55;;;;;;;;;;4973053;28;20087;-72
2023/04/05 10:25:35;;;;;;;7.97;5.55;;;11.40;99.90;;;;;;4965576;28;20197;-72
2023/04/05 10:28:05;;;;;;;7.22;5.38;;;11.40;99.90;;;;;;4955322;28;20665;-71
2023/04/05 10:30:38;;;;;;;8.02;4.70;;;;;;;;;;4972627;28;20057;-71
2023/04/05 10:33:11;;;;;;;8.93;5.03;;;;;;;;;;4982193;28;20393;-71
2023/04/05 10:35:59;;;;;;;7.43;5.13;;;11.00;99.90;;;;;;4965944;28;20736;-72
2023/04/05 10:38:29;;;;;;;9.82;5.38;;;;;;;;;;4979404;28;20400;-71
2023/04/05 10:41:04;;;;;;;7.95;5.15;;;11.10;99.90;;;;;;4960361;28;20051;-71
2023/04/05 10:43:30;;;;;;;;;;;11.30;99.90;;;;;;4960068;28;20040;-71
2023/04/05 10:45:58;;;;;;;9.32;5.22;;;10.90;99.90;;;;;;4962341;28;19964;-71
2023/04/05 10:48:46;;;;;;;9.52;6.20;;;11.00;99.90;;;;;;4950200;28;20058;-75
2023/04/05 10:51:13;;;;;;;8.73;5.18;;;;;;;;;;4975712;28;20093;-72
2023/04/05 10:53:40;;;;;;;9.35;5.20;;;11.20;99.90;;;;;;4955733;28;20141;-71
2023/04/05 10:56:06;;;;;;;10.95;4.97;;;;;;;;;;4973182;28;20042;-72
2023/04/05 10:58:34;;;;;;;8.73;5.30;;;11.10;99.90;;;;;;4964768;28;20041;-71
2023/04/05 11:01:00;;;;;;;7.25;4.82;;;11.20;99.90;;;;;;4957596;28;20492;-71
2023/04/05 11:03:49;;;;;;;7.32;5.15;;;11.10;99.90;;;;;;4965043;28;20039;-73
2023/04/05 11:06:30;;;;;;;7.15;4.70;;;;;;;;;;4967950;28;20045;-72
2023/04/05 11:09:09;;;;;;;5.38;4.40;;;11.40;99.90;;;;;;4958435;28;20042;-74
2023/04/05 11:11:39;;;;;;;6.07;4.40;;;;;;;;;;4953635;28;20053;-73
2023/04/05 11:14:17;;;;;;;7.05;5.40;;;;;;;;;;4954774;28;20049;-72
2023/04/05 11:16:46;;;;;;;7.28;4.60;;;11.20;99.90;;;;;;4951358;28;20058;-73
2023/04/05 11:19:12;;;;;;;6.97;5.45;;;;;;;;;;4962717;28;20054;-72
2023/04/05 11:21:38;;;;;;;6.90;4.78;;;;;;;;;;4954218;28;20046;-72
2023/04/05 11:24:10;;;;;;;6.10;4.18;;;11.10;99.90;;;;;;4958896;28;20050;-71
2023/04/05 11:26:39;;;;;;;7.63;5.35;;;11.30;99.90;;;;;;4964183;28;20070;-74
2023/04/05 11:29:05;;;;;;;7.10;4.38;;;;;;;;;;4961734;28;20043;-73
2023/04/05 11:31:30;;;;;;;7.80;5.03;;;11.10;99.90;;;;;;4965417;28;20188;-72
2023/04/05 11:33:58;;;;;;;6.40;4.53;;;;;;;;;;4969913;28;20049;-72
2023/04/05 11:36:40;;;;;;;7.65;4.10;;;;;;;;;;4973722;28;20056;-73
2023/04/05 11:39:21;;;;;;;6.40;4.18;;;;;;;;;;4965507;28;20054;-72
2023/04/05 11:41:56;;;;;;;5.82;3.83;;;;;;;;;;4952761;28;20057;-73
2023/04/05 11:44:23;;;;;;;6.65;4.03;;;;;;;;;;4971318;28;20042;-72
2023/04/05 11:46:49;;;;;;;9.35;4.38;;;;;;;;;;4958351;28;20046;-72
2023/04/05 11:49:15;;;;;;;5.65;4.13;;;;;;;;;;4978918;28;20398;-73
2023/04/05 11:51:41;;;;;;;7.55;5.03;;;;;;;;;;4957221;28;20575;-72
2023/04/05 11:54:08;;;;;;;8.77;5.00;;;;;;;;;;4960134;28;20082;-72
2023/04/05 11:56:34;;;;;;;6.07;4.15;;;;;;;;;;4959601;28;20512;-73
2023/04/05 11:59:00;;;;;;;11.20;4.38;;;;;;;;;;4951992;28;20050;-73
2023/04/05 12:01:27;;;;;;;6.60;4.13;;;;;;;;;;4951836;28;20047;-72
2023/04/05 12:03:54;;;;;;;9.13;4.65;;;11.30;99.90;;;;;;4957433;28;20051;-74
2023/04/05 12:06:21;;;;;;;9.10;4.40;;;;;;;;;;4963315;28;20057;-73
2023/04/05 12:08:51;;;;;;;7.88;5.57;;;;;;;;;;4953224;28;20042;-72
2023/04/05 12:11:26;;;;;;;5.57;4.93;;;;;;;;;;4955848;28;20082;-72
2023/04/05 12:14:00;;;;;;;9.57;3.85;;;;;;;;;;4959711;28;20133;-72
2023/04/05 12:16:26;;;;;;;7.75;4.13;;;;;;;;;;4957953;28;20077;-73
2023/04/05 12:18:59;;;;;;;5.05;4.30;;;11.00;99.90;;;;;;4984895;28;20030;-72
2023/04/05 12:21:26;;;;;;;9.38;4.93;;;;;;;;;;4962244;28;20042;-72
2023/04/05 12:23:52;;;;;;;6.85;4.38;;;;;;;;;;4970218;28;20178;-72
2023/04/05 12:26:19;;;;;;;9.38;4.57;;;;;;;;;;4948402;28;20430;-73
2023/04/05 12:28:50;;;;;;;8.30;5.03;;;;;;;;;;4949965;28;20046;-73
2023/04/05 12:31:16;;;;;;;7.50;5.18;;;11.20;99.90;;;;;;4950262;28;20086;-72
2023/04/05 12:33:43;;;;;;;6.43;4.53;;;;;;;;;;4955581;28;20078;-72
2023/04/05 12:36:10;;;;;;;7.35;4.22;;;;;;;;;;4956104;28;20554;-72
2023/04/05 12:38:37;;;;;;;6.85;4.75;;;10.90;99.90;;;;;;4957906;28;20445;-73
2023/04/05 12:41:03;;;;;;;7.47;4.88;;;;;;;;;;4954458;28;20508;-73
2023/04/05 12:43:39;;;;;;;9.15;4.80;;;;;;;;;;4962764;28;20038;-72
2023/04/05 12:46:08;;;;;;;6.68;4.57;;;;;;;;;;4963116;28;20079;-72
2023/04/05 12:48:36;;;;;;;9.82;4.57;;;;;;;;;;4959126;28;20409;-72
2023/04/05 12:51:14;;;;;;;7.40;4.60;;;11.00;99.90;;;;;;4958616;28;20599;-71
2023/04/05 12:53:46;;;;;;;8.75;5.47;;;;;;;;;;4961168;28;20042;-73
2023/04/05 12:56:12;;;;;;;11.13;4.82;;;;;;;;;;4968438;28;20086;-72
2023/04/05 12:58:39;;;;;;;9.48;4.65;;;;;;;;;;4959992;28;20055;-71
2023/04/05 13:01:04;;;;;;;7.68;4.70;;;11.20;99.90;;;;;;4954214;28;20407;-72
2023/04/05 13:03:30;;;;;;;6.40;4.35;;;;;;;;;;4956745;28;20046;-72
2023/04/05 13:05:57;;;;;;;7.45;5.22;;;;;;;;;;4963142;28;20074;-73
2023/04/05 13:08:25;;;;;;;8.38;5.00;;;;;;;;;;4958996;28;20046;-72
2023/04/05 13:10:52;;;;;;;8.32;4.90;;;;;;;;;;4963410;28;20153;-73
2023/04/05 13:13:19;;;;;;;8.15;5.28;;;11.40;99.90;;;;;;4956993;28;20512;-72
2023/04/05 13:15:46;;;;;;;7.97;5.25;;;;;;;;;;4981908;28;20058;-72
2023/04/05 13:18:13;;;;;;;6.05;4.85;;;;;;;;;;4937660;28;20054;-75
2023/04/05 13:20:40;;;;;;;6.38;4.63;;;;;;;;;;4982946;28;20058;-72
2023/04/05 13:23:09;;;;;;;7.50;5.03;;;;;;;;;;4954108;28;20054;-71
2023/04/05 13:25:35;;;;;;;7.80;5.05;;;;;;;;;;4963478;28;20121;-72
2023/04/05 13:28:01;;;;;;;7.82;4.80;;;;;;;;;;4963745;28;20801;-72
2023/04/05 13:30:29;;;;;;;7.57;4.63;;;;;;;;;;4951409;28;20178;-75
2023/04/05 13:32:55;;;;;;;7.15;4.95;;;;;;;;;;4961580;28;20447;-73
2023/04/05 13:35:21;;;;;;;10.35;4.90;;;11.40;99.90;;;;;;4961067;28;20050;-72
2023/04/05 13:37:48;;;;;;;6.15;4.78;;;;;;;;;;4963442;28;20042;-72
2023/04/05 13:40:15;;;;;;;7.22;4.82;;;;;;;;;;4951469;28;20047;-72
2023/04/05 13:42:41;;;;;;;6.75;4.97;;;;;;;;;;4978996;28;20101;-72
2023/04/05 13:45:08;;;;;;;7.28;4.80;;;;;;;;;;4964654;28;20124;-73
2023/04/05 13:47:34;;;;;;;9.02;5.22;;;;;;;;;;4976840;28;20126;-72
2023/04/05 13:50:01;;;;;;;6.40;4.82;;;;;;;;;;4965408;28;20042;-74
2023/04/05 13:52:27;;;;;;;7.05;4.95;;;;;;;;;;4970123;28;20050;-72
2023/04/05 13:54:53;;;;;;;8.52;5.05;;;11.40;99.90;;;;;;4963489;28;20052;-72
2023/04/05 13:57:18;;;;;;;6.93;4.38;;;11.50;99.90;;;;;;4957275;28;20046;-72
2023/04/05 13:59:44;;;;;;;6.95;5.05;;;;;;;;;;4972671;28;20058;-74
2023/04/05 14:02:10;;;;;;;6.50;4.78;;;;;;;;;;4955805;28;20413;-72
2023/04/05 14:04:40;;;;;;;8.27;4.80;;;11.40;99.90;;;;;;4960975;28;20043;-72
2023/04/05 14:07:06;;;;;;;7.85;5.07;;;;;;;;;;4979781;28;20072;-72
2023/04/05 14:09:32;;;;;;;9.45;4.78;;;;;;;;;;4962820;28;20038;-73
2023/04/05 14:12:01;;;;;;;6.78;4.72;;;11.60;99.90;;;;;;4981399;28;20038;-71